createdAt,value
2023-05-01T00:00:35.002Z,58.21
2023-05-01T00:01:40.387Z,58.18
2023-05-01T00:02:46.089Z,58.26
2023-05-01T00:03:52.170Z,58.37
2023-05-01T00:04:58.055Z,58.14
2023-05-01T00:06:03.623Z,58.54
2023-05-01T00:07:09.021Z,58.34
2023-05-01T00:08:14.403Z,58.4
2023-05-01T00:09:19.804Z,58.4
2023-05-01T00:10:25.204Z,58.49
2023-05-01T00:11:30.607Z,58.47
2023-05-01T00:12:35.986Z,58.52
2023-05-01T00:13:41.371Z,58.49
2023-05-01T00:14:46.834Z,58.36
2023-05-01T00:15:52.355Z,58.32
2023-05-01T00:16:58.221Z,58.64
2023-05-01T00:18:04.044Z,58.56
2023-05-01T00:19:09.399Z,58.71
2023-05-01T00:20:14.762Z,58.62
2023-05-01T00:21:20.135Z,58.71
2023-05-01T00:22:25.497Z,58.51
2023-05-01T00:23:30.899Z,58.71
2023-05-01T00:24:36.277Z,58.62
2023-05-01T00:25:41.626Z,58.63
2023-05-01T00:26:47.071Z,58.53
2023-05-01T00:27:52.473Z,58.74
2023-05-01T00:28:57.881Z,58.76
2023-05-01T00:30:03.240Z,58.7
2023-05-01T00:31:08.613Z,58.6
2023-05-01T00:32:14.371Z,58.71
2023-05-01T00:33:19.827Z,58.57
2023-05-01T00:34:25.230Z,58.7
2023-05-01T00:35:30.736Z,58.84
2023-05-01T00:36:36.135Z,58.87
2023-05-01T00:37:41.556Z,58.79
2023-05-01T00:38:47.005Z,58.85
2023-05-01T00:39:52.409Z,58.75
2023-05-01T00:40:57.826Z,58.87
2023-05-01T00:42:03.202Z,58.94
2023-05-01T00:43:08.601Z,58.87
2023-05-01T00:44:13.980Z,58.69
2023-05-01T00:45:19.385Z,58.69
2023-05-01T00:46:24.984Z,58.78
2023-05-01T00:47:30.571Z,58.65
2023-05-01T00:48:36.000Z,58.84
2023-05-01T00:49:41.412Z,58.8
2023-05-01T00:50:46.828Z,58.92
2023-05-01T00:51:52.212Z,58.81
2023-05-01T00:52:57.569Z,59.08
2023-05-01T00:54:02.983Z,58.76
2023-05-01T00:55:08.370Z,58.77
2023-05-01T00:56:13.745Z,58.89
2023-05-01T00:57:19.110Z,58.82
2023-05-01T00:58:24.495Z,58.89
2023-05-01T00:59:29.912Z,58.74
2023-05-01T01:00:35.314Z,58.67
2023-05-01T01:01:41.048Z,59.16
2023-05-01T01:02:46.539Z,58.97
2023-05-01T01:03:51.930Z,58.82
2023-05-01T01:04:57.610Z,58.8
2023-05-01T01:06:03.218Z,58.93
2023-05-01T01:07:08.603Z,58.85
2023-05-01T01:08:14.028Z,58.82
2023-05-01T01:09:19.385Z,58.85
2023-05-01T01:10:24.799Z,58.9
2023-05-01T01:11:30.319Z,59.02
2023-05-01T01:12:35.743Z,59.04
2023-05-01T01:13:41.133Z,58.9
2023-05-01T01:14:46.533Z,58.99
2023-05-01T01:15:51.915Z,58.98
2023-05-01T01:16:57.726Z,58.89
2023-05-01T01:18:03.218Z,59.02
2023-05-01T01:19:08.628Z,58.98
2023-05-01T01:20:14.030Z,59.04
2023-05-01T01:21:19.505Z,59.08
2023-05-01T01:22:24.936Z,59.21
2023-05-01T01:23:30.380Z,59
2023-05-01T01:24:35.749Z,59.18
2023-05-01T01:25:41.139Z,59.13
2023-05-01T01:26:46.524Z,59.52
2023-05-01T01:27:51.907Z,59.75
2023-05-01T01:28:57.275Z,59.37
2023-05-01T01:30:02.674Z,59.5
2023-05-01T01:31:08.248Z,59.44
2023-05-01T01:32:13.676Z,59.24
2023-05-01T01:33:19.027Z,59.26
2023-05-01T01:34:24.421Z,59.07
2023-05-01T01:35:29.844Z,59.16
2023-05-01T01:36:35.207Z,59.24
2023-05-01T01:37:40.606Z,59.35
2023-05-01T01:38:45.963Z,59.35
2023-05-01T01:39:51.361Z,59.35
2023-05-01T01:40:56.717Z,59.5
2023-05-01T01:42:02.115Z,59.41
2023-05-01T01:43:07.525Z,59.58
2023-05-01T01:44:13.009Z,59.54
2023-05-01T01:45:18.372Z,59.3
2023-05-01T01:46:23.902Z,59.58
2023-05-01T01:47:29.573Z,59.37
2023-05-01T01:48:34.936Z,59.59
2023-05-01T01:49:40.335Z,59.37
2023-05-01T01:50:45.752Z,59.56
2023-05-01T01:51:51.159Z,59.45
2023-05-01T01:52:56.538Z,59.55
2023-05-01T01:54:01.925Z,59.53
2023-05-01T01:55:07.293Z,59.59
2023-05-01T01:56:12.714Z,59.49
2023-05-01T01:57:18.079Z,59.6
2023-05-01T01:58:23.454Z,59.51
2023-05-01T01:59:28.833Z,59.62
2023-05-01T02:00:34.244Z,59.53
2023-05-01T02:01:39.735Z,59.48
2023-05-01T02:02:45.430Z,59.58
2023-05-01T02:03:51.211Z,59.65
2023-05-01T02:04:56.641Z,59.58
2023-05-01T02:06:02.216Z,59.49
2023-05-01T02:07:07.656Z,59.43
2023-05-01T02:08:13.082Z,59.7
2023-05-01T02:09:18.469Z,59.58
2023-05-01T02:10:23.895Z,59.71
2023-05-01T02:11:29.268Z,59.64
2023-05-01T02:12:34.708Z,59.59
2023-05-01T02:13:40.204Z,59.61
2023-05-01T02:14:45.685Z,59.69
2023-05-01T02:15:51.143Z,59.76
2023-05-01T02:16:56.557Z,59.69
2023-05-01T02:18:02.213Z,59.61
2023-05-01T02:19:07.616Z,59.66
2023-05-01T02:20:12.995Z,59.85
2023-05-01T02:21:18.424Z,59.59
2023-05-01T02:22:23.805Z,59.79
2023-05-01T02:23:29.164Z,59.78
2023-05-01T02:24:34.542Z,60.26
2023-05-01T02:25:39.946Z,60.5
2023-05-01T02:26:45.335Z,60.7
2023-05-01T02:27:50.718Z,60.85
2023-05-01T02:28:56.949Z,60.91
2023-05-01T02:30:02.319Z,60.68
2023-05-01T02:31:07.788Z,61.1
2023-05-01T02:32:13.198Z,61.1
2023-05-01T02:33:18.563Z,60.93
2023-05-01T02:34:23.971Z,61.08
2023-05-01T02:35:29.375Z,61.17
2023-05-01T02:36:34.794Z,61.17
2023-05-01T02:37:40.146Z,61.17
2023-05-01T02:38:45.488Z,61.16
2023-05-01T02:39:50.832Z,61.22
2023-05-01T02:40:56.250Z,61.38
2023-05-01T02:42:01.625Z,61.31
2023-05-01T02:43:06.994Z,61.27
2023-05-01T02:44:12.352Z,61.41
2023-05-01T02:45:17.754Z,61.38
2023-05-01T02:46:23.584Z,61.33
2023-05-01T02:47:29.340Z,61.48
2023-05-01T02:48:34.762Z,61.54
2023-05-01T02:49:40.173Z,61.27
2023-05-01T02:50:45.564Z,61.51
2023-05-01T02:51:50.980Z,61.48
2023-05-01T02:52:56.441Z,61.33
2023-05-01T02:54:01.836Z,61.41
2023-05-01T02:55:07.231Z,61.69
2023-05-01T02:56:12.633Z,61.79
2023-05-01T02:57:18.038Z,61.51
2023-05-01T02:58:23.473Z,61.75
2023-05-01T02:59:28.964Z,61.6
2023-05-01T03:00:34.411Z,61.75
2023-05-01T03:01:39.960Z,61.63
2023-05-01T03:02:45.461Z,61.76
2023-05-01T03:03:50.964Z,61.76
2023-05-01T03:04:56.382Z,61.85
2023-05-01T03:06:01.892Z,61.9
2023-05-01T03:07:07.313Z,61.8
2023-05-01T03:08:12.729Z,61.92
2023-05-01T03:09:18.138Z,61.7
2023-05-01T03:10:23.553Z,61.65
2023-05-01T03:11:29.029Z,61.68
2023-05-01T03:12:34.451Z,61.78
2023-05-01T03:13:39.960Z,61.68
2023-05-01T03:14:45.334Z,61.48
2023-05-01T03:15:50.769Z,61.3
2023-05-01T03:16:56.411Z,61.05
2023-05-01T03:18:02.066Z,61.19
2023-05-01T03:19:07.497Z,61.13
2023-05-01T03:20:12.910Z,61.4
2023-05-01T03:21:18.327Z,61.75
2023-05-01T03:22:23.717Z,61.69
2023-05-01T03:23:29.068Z,61.98
2023-05-01T03:24:34.441Z,61.98
2023-05-01T03:25:39.828Z,61.92
2023-05-01T03:26:45.260Z,62.02
2023-05-01T03:27:50.626Z,62.16
2023-05-01T03:28:56.013Z,62.19
2023-05-01T03:30:01.472Z,62.25
2023-05-01T03:31:06.872Z,61.87
2023-05-01T03:32:12.508Z,62.31
2023-05-01T03:33:18.017Z,62.03
2023-05-01T03:34:23.371Z,62.22
2023-05-01T03:35:29.159Z,61.96
2023-05-01T03:36:34.588Z,62.15
2023-05-01T03:37:39.947Z,61.95
2023-05-01T03:38:45.361Z,62.02
2023-05-01T03:39:50.736Z,62.15
2023-05-01T03:40:56.125Z,62.24
2023-05-01T03:42:01.540Z,62.13
2023-05-01T03:43:07.054Z,62.06
2023-05-01T03:44:12.469Z,61.95
2023-05-01T03:45:17.882Z,62.18
2023-05-01T03:46:23.513Z,62.15
2023-05-01T03:47:29.087Z,62.31
2023-05-01T03:48:34.528Z,62.19
2023-05-01T03:49:39.913Z,62.15
2023-05-01T03:50:45.297Z,62.25
2023-05-01T03:51:50.733Z,62.21
2023-05-01T03:52:56.120Z,62.44
2023-05-01T03:54:01.597Z,61.49
2023-05-01T03:55:06.970Z,61.95
2023-05-01T03:56:12.404Z,62.29
2023-05-01T03:57:17.792Z,62.39
2023-05-01T03:58:23.181Z,62.27
2023-05-01T03:59:28.569Z,62.34
2023-05-01T04:00:33.959Z,62.37
2023-05-01T04:01:39.478Z,62.33
2023-05-01T04:02:45.451Z,62.09
2023-05-01T04:03:51.287Z,61.54
2023-05-01T04:04:56.727Z,62.23
2023-05-01T04:06:02.311Z,62.18
2023-05-01T04:07:07.718Z,61.79
2023-05-01T04:08:13.099Z,62.17
2023-05-01T04:09:18.483Z,62.33
2023-05-01T04:10:23.863Z,62.29
2023-05-01T04:11:29.253Z,62.22
2023-05-01T04:12:34.672Z,62.34
2023-05-01T04:13:40.074Z,62.44
2023-05-01T04:14:45.490Z,62.1
2023-05-01T04:15:50.981Z,62.28
2023-05-01T04:16:56.360Z,62.46
2023-05-01T04:18:01.894Z,62.47
2023-05-01T04:19:07.372Z,62.34
2023-05-01T04:20:12.768Z,62.45
2023-05-01T04:21:18.249Z,62.35
2023-05-01T04:22:23.630Z,62.46
2023-05-01T04:23:29.034Z,62.28
2023-05-01T04:24:34.463Z,61.95
2023-05-01T04:25:39.881Z,62.56
2023-05-01T04:26:45.243Z,61.83
2023-05-01T04:27:50.767Z,62.27
2023-05-01T04:28:56.164Z,62.44
2023-05-01T04:30:02.314Z,62.28
2023-05-01T04:31:07.757Z,62.61
2023-05-01T04:32:13.147Z,62.66
2023-05-01T04:33:18.522Z,62.64
2023-05-01T04:34:23.895Z,62.4
2023-05-01T04:35:29.420Z,62.14
2023-05-01T04:36:34.867Z,61.83
2023-05-01T04:37:40.265Z,61.81
2023-05-01T04:38:45.619Z,62.04
2023-05-01T04:39:51.003Z,62.06
2023-05-01T04:40:56.398Z,62.31
2023-05-01T04:42:01.799Z,62.06
2023-05-01T04:43:07.196Z,61.9
2023-05-01T04:44:12.567Z,62.19
2023-05-01T04:45:17.960Z,61.88
2023-05-01T04:46:23.559Z,61.85
2023-05-01T04:47:28.978Z,62.27
2023-05-01T04:48:34.389Z,61.67
2023-05-01T04:49:39.753Z,62.28
2023-05-01T04:50:45.148Z,61.84
2023-05-01T04:51:50.598Z,61.99
2023-05-01T04:52:56.066Z,61.62
2023-05-01T04:54:01.514Z,61.95
2023-05-01T04:55:06.924Z,61.81
2023-05-01T04:56:12.318Z,61.89
2023-05-01T04:57:17.736Z,62.13
2023-05-01T04:58:23.129Z,62
2023-05-01T04:59:28.536Z,62.29
2023-05-01T05:00:33.939Z,62.37
2023-05-01T05:01:39.498Z,62.07
2023-05-01T05:02:45.182Z,62.48
2023-05-01T05:03:53.469Z,61.87
2023-05-01T05:04:59.004Z,61.74
2023-05-01T05:06:04.554Z,62.56
2023-05-01T05:07:10.205Z,62.57
2023-05-01T05:08:15.578Z,62.34
2023-05-01T05:09:22.873Z,62.24
2023-05-01T05:10:28.347Z,62.55
2023-05-01T05:11:33.802Z,61.96
2023-05-01T05:12:39.269Z,62.3
2023-05-01T05:13:44.642Z,62.2
2023-05-01T05:14:51.044Z,62.56
2023-05-01T05:15:56.588Z,62.63
2023-05-01T05:17:02.323Z,62.4
2023-05-01T05:18:07.948Z,62.67
2023-05-01T05:19:13.405Z,62.06
2023-05-01T05:20:18.803Z,61.96
2023-05-01T05:21:24.351Z,62.55
2023-05-01T05:22:29.782Z,62.63
2023-05-01T05:23:35.229Z,62.79
2023-05-01T05:24:40.647Z,62.27
2023-05-01T05:25:46.082Z,62.41
2023-05-01T05:26:51.475Z,61.93
2023-05-01T05:27:56.927Z,62.54
2023-05-01T05:29:02.383Z,62.56
2023-05-01T05:30:07.885Z,62
2023-05-01T05:31:13.366Z,62.48
2023-05-01T05:32:18.967Z,62.76
2023-05-01T05:33:24.447Z,62.82
2023-05-01T05:34:29.902Z,62.91
2023-05-01T05:35:35.284Z,62.59
2023-05-01T05:36:40.691Z,62.74
2023-05-01T05:37:48.860Z,62.74
2023-05-01T05:38:54.345Z,62.9
2023-05-01T05:40:00.188Z,62.99
2023-05-01T05:41:05.574Z,62.93
2023-05-01T05:42:10.965Z,62.98
2023-05-01T05:43:16.404Z,62.4
2023-05-01T05:44:21.752Z,62.97
2023-05-01T05:45:27.116Z,63.02
2023-05-01T05:46:32.649Z,63.01
2023-05-01T05:47:38.242Z,62.57
2023-05-01T05:48:43.644Z,63.17
2023-05-01T05:49:49.019Z,63.16
2023-05-01T05:50:54.379Z,63.08
2023-05-01T05:51:59.776Z,63.18
2023-05-01T05:53:05.212Z,63.19
2023-05-01T05:54:10.588Z,63.12
2023-05-01T05:55:15.953Z,63.16
2023-05-01T05:56:21.324Z,63.1
2023-05-01T05:57:26.705Z,63.1
2023-05-01T05:58:32.140Z,63.29
2023-05-01T05:59:37.568Z,63.09
2023-05-01T06:00:42.940Z,63.16
2023-05-01T06:01:48.317Z,63.09
2023-05-01T06:02:53.898Z,63.2
2023-05-01T06:03:59.589Z,63.19
2023-05-01T06:05:05.200Z,63.17
2023-05-01T06:06:11.211Z,63.04
2023-05-01T06:07:16.620Z,63.21
2023-05-01T06:08:21.997Z,63.1
2023-05-01T06:09:27.456Z,63.21
2023-05-01T06:10:32.927Z,62.98
2023-05-01T06:11:38.332Z,62.89
2023-05-01T06:13:01.317Z,63.13
2023-05-01T06:14:15.652Z,63.27
2023-05-01T06:15:21.038Z,63.14
2023-05-01T06:16:26.574Z,63.1
2023-05-01T06:17:32.089Z,63.23
2023-05-01T06:18:37.532Z,63.17
2023-05-01T06:19:42.911Z,63.29
2023-05-01T06:20:48.381Z,63.28
2023-05-01T06:21:53.744Z,62.96
2023-05-01T06:22:59.136Z,63.3
2023-05-01T06:24:04.534Z,63.12
2023-05-01T06:25:09.943Z,63.29
2023-05-01T06:26:15.333Z,62.99
2023-05-01T06:27:20.728Z,63.28
2023-05-01T06:28:26.123Z,63.25
2023-05-01T06:29:31.515Z,63.28
2023-05-01T06:30:36.912Z,63.21
2023-05-01T06:31:42.432Z,63.28
2023-05-01T06:32:48.016Z,63.12
2023-05-01T06:33:53.500Z,63.11
2023-05-01T06:34:58.893Z,63.24
2023-05-01T06:36:04.367Z,63.03
2023-05-01T06:37:09.789Z,63.16
2023-05-01T06:38:15.193Z,63.25
2023-05-01T06:39:20.670Z,63.21
2023-05-01T06:40:26.062Z,63.15
2023-05-01T06:41:31.525Z,63.25
2023-05-01T06:42:36.973Z,63.22
2023-05-01T06:43:42.440Z,63.15
2023-05-01T06:44:47.809Z,63.36
2023-05-01T06:45:53.191Z,63.1
2023-05-01T06:46:58.752Z,63.07
2023-05-01T06:48:04.282Z,63.03
2023-05-01T06:49:09.773Z,63.15
2023-05-01T06:50:15.176Z,63.33
2023-05-01T06:51:20.858Z,63.15
2023-05-01T06:52:26.282Z,63.14
2023-05-01T06:53:31.656Z,63.24
2023-05-01T06:54:37.082Z,63.17
2023-05-01T06:55:42.436Z,63.12
2023-05-01T06:56:47.823Z,63.16
2023-05-01T06:57:53.202Z,62.83
2023-05-01T06:58:58.608Z,62.91
2023-05-01T07:00:04.002Z,61.6
2023-05-01T07:01:09.711Z,60.82
2023-05-01T07:02:15.293Z,60.31
2023-05-01T07:03:21.029Z,59.53
2023-05-01T07:04:26.503Z,59.27
2023-05-01T07:05:31.911Z,58.62
2023-05-01T07:06:37.472Z,58.57
2023-05-01T07:08:01.446Z,57.88
2023-05-01T07:09:07.176Z,57.43
2023-05-01T07:10:12.610Z,57
2023-05-01T07:11:18.020Z,56.75
2023-05-01T07:12:23.510Z,56.68
2023-05-01T07:13:28.884Z,56.46
2023-05-01T07:14:34.274Z,56.16
2023-05-01T07:15:39.651Z,55.65
2023-05-01T07:16:45.313Z,55.58
2023-05-01T07:17:50.898Z,55.28
2023-05-01T07:18:56.282Z,55.32
2023-05-01T07:20:01.930Z,54.79
2023-05-01T07:21:07.312Z,54.56
2023-05-01T07:22:12.698Z,54.11
2023-05-01T07:23:18.098Z,53.95
2023-05-01T07:24:23.481Z,53.38
2023-05-01T07:25:28.909Z,53.24
2023-05-01T07:26:34.304Z,53.04
2023-05-01T07:27:39.693Z,52.77
2023-05-01T07:28:45.078Z,52.66
2023-05-01T07:29:50.487Z,52.47
2023-05-01T07:30:55.888Z,52.62
2023-05-01T07:32:01.670Z,53.3
2023-05-01T07:33:07.405Z,53
2023-05-01T07:34:12.833Z,52.63
2023-05-01T07:35:18.277Z,52.52
2023-05-01T07:36:23.711Z,52.29
2023-05-01T07:37:29.118Z,52.19
2023-05-01T07:38:34.527Z,52.19
2023-05-01T07:39:39.972Z,52.06
2023-05-01T07:40:45.364Z,52.09
2023-05-01T07:41:50.812Z,51.82
2023-05-01T07:42:57.471Z,51.63
2023-05-01T07:44:02.910Z,51.32
2023-05-01T07:45:08.317Z,51.42
2023-05-01T07:46:13.860Z,51.35
2023-05-01T07:47:19.327Z,51.27
2023-05-01T07:48:24.775Z,51.11
2023-05-01T07:49:30.214Z,51.06
2023-05-01T07:50:35.594Z,50.67
2023-05-01T07:51:40.992Z,50.32
2023-05-01T07:52:46.393Z,50.6
2023-05-01T07:53:51.929Z,50.58
2023-05-01T07:54:57.341Z,50.35
2023-05-01T07:56:02.725Z,50.18
2023-05-01T07:57:08.136Z,50.42
2023-05-01T07:58:13.535Z,50.23
2023-05-01T07:59:18.947Z,50.13
2023-05-01T08:00:24.383Z,50.02
2023-05-01T08:01:29.846Z,49.56
2023-05-01T08:02:35.616Z,49.26
2023-05-01T08:03:41.480Z,49.27
2023-05-01T08:04:47.270Z,49.17
2023-05-01T08:05:52.685Z,49.07
2023-05-01T08:06:58.705Z,49.07
2023-05-01T08:08:04.160Z,48.93
2023-05-01T08:09:09.618Z,48.79
2023-05-01T08:10:15.014Z,48.86
2023-05-01T08:11:20.392Z,48.7
2023-05-01T08:12:25.789Z,48.46
2023-05-01T08:13:31.169Z,48.49
2023-05-01T08:14:36.607Z,48.34
2023-05-01T08:15:42.097Z,48.34
2023-05-01T08:16:47.917Z,48.26
2023-05-01T08:17:53.685Z,48.34
2023-05-01T08:18:59.215Z,48.29
2023-05-01T08:20:04.615Z,48.06
2023-05-01T08:21:10.010Z,47.95
2023-05-01T08:22:15.414Z,47.79
2023-05-01T08:23:20.795Z,47.9
2023-05-01T08:24:26.209Z,48.02
2023-05-01T08:25:31.618Z,48.06
2023-05-01T08:26:37.032Z,48.08
2023-05-01T08:27:42.411Z,48.2
2023-05-01T08:28:47.809Z,47.92
2023-05-01T08:29:53.334Z,47.88
2023-05-01T08:30:58.891Z,47.85
2023-05-01T08:32:04.385Z,48.18
2023-05-01T08:33:09.897Z,47.79
2023-05-01T08:34:15.417Z,47.91
2023-05-01T08:35:20.771Z,47.62
2023-05-01T08:36:26.158Z,47.5
2023-05-01T08:37:31.537Z,47.58
2023-05-01T08:38:36.919Z,47.4
2023-05-01T08:39:42.322Z,47.2
2023-05-01T08:40:47.753Z,47.17
2023-05-01T08:41:53.154Z,47.16
2023-05-01T08:42:58.548Z,47
2023-05-01T08:44:03.958Z,46.8
2023-05-01T08:45:09.404Z,47.37
2023-05-01T08:46:15.139Z,46.9
2023-05-01T08:47:20.629Z,46.8
2023-05-01T08:48:26.348Z,46.67
2023-05-01T08:49:31.731Z,46.8
2023-05-01T08:50:37.152Z,46.71
2023-05-01T08:51:42.544Z,46.8
2023-05-01T08:52:47.924Z,46.47
2023-05-01T08:53:53.472Z,46.48
2023-05-01T08:54:58.838Z,46.23
2023-05-01T08:56:04.243Z,46.75
2023-05-01T08:57:12.930Z,46.27
2023-05-01T08:58:18.326Z,46.54
2023-05-01T08:59:23.690Z,46.72
2023-05-01T09:00:29.092Z,46.47
2023-05-01T09:01:34.757Z,46.19
2023-05-01T09:02:40.262Z,46.49
2023-05-01T09:03:45.870Z,46.05
2023-05-01T09:04:51.281Z,46.04
2023-05-01T09:05:56.718Z,45.96
2023-05-01T09:07:02.185Z,46.02
2023-05-01T09:08:07.591Z,45.99
2023-05-01T09:09:13.029Z,45.94
2023-05-01T09:10:18.485Z,45.78
2023-05-01T09:11:23.917Z,45.93
2023-05-01T09:12:29.328Z,45.84
2023-05-01T09:13:34.732Z,45.96
2023-05-01T09:14:40.154Z,45.6
2023-05-01T09:15:45.642Z,46.05
2023-05-01T09:16:51.576Z,46.05
2023-05-01T09:17:57.153Z,46.01
2023-05-01T09:19:02.624Z,46.1
2023-05-01T09:20:08.015Z,46.05
2023-05-01T09:21:13.438Z,46.13
2023-05-01T09:22:18.831Z,46.25
2023-05-01T09:23:24.230Z,46.01
2023-05-01T09:24:29.604Z,45.74
2023-05-01T09:25:35.090Z,45.98
2023-05-01T09:26:40.496Z,45.88
2023-05-01T09:27:45.908Z,45.98
2023-05-01T09:28:51.309Z,45.83
2023-05-01T09:29:57.208Z,45.74
2023-05-01T09:31:02.762Z,45.66
2023-05-01T09:32:08.319Z,45.68
2023-05-01T09:33:14.287Z,45.96
2023-05-01T09:34:19.757Z,45.53
2023-05-01T09:35:25.144Z,45.75
2023-05-01T09:36:30.590Z,45.81
2023-05-01T09:37:35.966Z,45.93
2023-05-01T09:38:41.345Z,45.59
2023-05-01T09:39:46.756Z,45.34
2023-05-01T09:40:52.160Z,46.33
2023-05-01T09:41:57.560Z,46.62
2023-05-01T09:43:02.918Z,46.59
2023-05-01T09:44:08.326Z,46.73
2023-05-01T09:45:13.690Z,47.03
2023-05-01T09:46:19.228Z,47.21
2023-05-01T09:47:24.814Z,47.64
2023-05-01T09:48:31.455Z,48.01
2023-05-01T09:49:38.030Z,48.21
2023-05-01T09:50:43.418Z,48.71
2023-05-01T09:51:48.850Z,48.92
2023-05-01T09:52:54.325Z,48.71
2023-05-01T09:53:59.738Z,48.78
2023-05-01T09:55:05.122Z,49.09
2023-05-01T09:56:10.573Z,48.98
2023-05-01T09:57:15.954Z,49.41
2023-05-01T09:58:21.328Z,49.45
2023-05-01T09:59:26.769Z,49.17
2023-05-01T10:00:32.232Z,49.19
2023-05-01T10:01:37.841Z,49.29
2023-05-01T10:02:43.493Z,49.31
2023-05-01T10:03:49.443Z,49.51
2023-05-01T10:04:54.962Z,49.57
2023-05-01T10:06:00.510Z,49.66
2023-05-01T10:07:06.138Z,49.64
2023-05-01T10:08:11.583Z,49.82
2023-05-01T10:09:17.329Z,49.87
2023-05-01T10:10:23.001Z,49.91
2023-05-01T10:11:28.680Z,50.07
2023-05-01T10:12:34.102Z,50.13
2023-05-01T10:13:39.469Z,50.05
2023-05-01T10:14:44.853Z,50.22
2023-05-01T10:15:50.252Z,50.23
2023-05-01T10:16:56.279Z,50.34
2023-05-01T10:18:01.913Z,50.36
2023-05-01T10:19:07.457Z,50.47
2023-05-01T10:20:12.858Z,50.49
2023-05-01T10:21:18.249Z,50.57
2023-05-01T10:22:23.651Z,50.64
2023-05-01T10:23:29.045Z,50.66
2023-05-01T10:24:34.549Z,50.7
2023-05-01T10:25:40.023Z,50.78
2023-05-01T10:26:45.463Z,50.82
2023-05-01T10:27:50.851Z,50.86
2023-05-01T10:28:56.236Z,50.9
2023-05-01T10:30:01.974Z,50.91
2023-05-01T10:31:07.588Z,50.94
2023-05-01T10:32:13.160Z,51.04
2023-05-01T10:33:18.721Z,51.07
2023-05-01T10:34:25.537Z,51.07
2023-05-01T10:35:31.570Z,51.17
2023-05-01T10:36:37.042Z,51.23
2023-05-01T10:37:42.473Z,51.25
2023-05-01T10:38:47.906Z,51.28
2023-05-01T10:39:53.331Z,51.3
2023-05-01T10:40:58.743Z,51.38
2023-05-01T10:42:04.476Z,51.42
2023-05-01T10:43:09.922Z,51.43
2023-05-01T10:44:15.322Z,51.49
2023-05-01T10:45:20.739Z,51.55
2023-05-01T10:46:26.278Z,51.54
2023-05-01T10:47:31.847Z,51.62
2023-05-01T10:48:37.313Z,51.62
2023-05-01T10:49:42.769Z,51.77
2023-05-01T10:50:48.152Z,51.8
2023-05-01T10:51:53.569Z,52.07
2023-05-01T10:52:58.990Z,52.08
2023-05-01T10:54:04.369Z,51.98
2023-05-01T10:55:09.732Z,51.98
2023-05-01T10:56:15.140Z,52.09
2023-05-01T10:57:20.515Z,52.1
2023-05-01T10:58:25.908Z,52.16
2023-05-01T10:59:31.281Z,52.26
2023-05-01T11:00:36.673Z,52.39
2023-05-01T11:01:42.298Z,52.28
2023-05-01T11:02:48.044Z,52.37
2023-05-01T11:03:53.414Z,52.4
2023-05-01T11:05:00.203Z,52.3
2023-05-01T11:06:06.331Z,52.37
2023-05-01T11:07:12.432Z,52.38
2023-05-01T11:08:17.868Z,52.47
2023-05-01T11:09:23.265Z,52.38
2023-05-01T11:10:28.716Z,52.44
2023-05-01T11:11:34.100Z,52.48
2023-05-01T11:12:39.486Z,52.46
2023-05-01T11:13:44.879Z,52.53
2023-05-01T11:14:50.252Z,52.31
2023-05-01T11:15:55.761Z,52.22
2023-05-01T11:17:01.189Z,52.27
2023-05-01T11:18:06.906Z,52.17
2023-05-01T11:19:12.480Z,52.22
2023-05-01T11:20:17.902Z,52.16
2023-05-01T11:21:23.310Z,52.3
2023-05-01T11:22:28.692Z,51.87
2023-05-01T11:23:34.062Z,51.98
2023-05-01T11:24:39.524Z,51.96
2023-05-01T11:25:44.898Z,52.08
2023-05-01T11:26:50.271Z,51.84
2023-05-01T11:27:55.764Z,52.02
2023-05-01T11:29:01.213Z,51.83
2023-05-01T11:30:06.607Z,52.65
2023-05-01T11:31:12.015Z,52.02
2023-05-01T11:32:17.803Z,52.15
2023-05-01T11:33:23.456Z,52.16
2023-05-01T11:34:29.175Z,52.14
2023-05-01T11:35:34.591Z,52.08
2023-05-01T11:36:39.978Z,52.01
2023-05-01T11:37:45.371Z,51.57
2023-05-01T11:38:50.746Z,51.15
2023-05-01T11:39:59.236Z,51.22
2023-05-01T11:41:04.699Z,51.43
2023-05-01T11:42:10.383Z,51.2
2023-05-01T11:43:15.894Z,50.87
2023-05-01T11:44:21.305Z,49.59
2023-05-01T11:45:26.674Z,49.83
2023-05-01T11:46:32.296Z,50.41
2023-05-01T11:47:37.888Z,50.07
2023-05-01T11:48:43.332Z,51.21
2023-05-01T11:49:48.730Z,50.37
2023-05-01T11:50:54.118Z,50.99
2023-05-01T11:51:59.561Z,50.35
2023-05-01T11:53:05.113Z,51.09
2023-05-01T11:54:10.509Z,50.8
2023-05-01T11:55:15.908Z,50.95
2023-05-01T11:56:28.288Z,50.87
2023-05-01T11:57:33.696Z,50.66
2023-05-01T11:58:39.443Z,50.74
2023-05-01T11:59:44.795Z,50.75
2023-05-01T12:00:50.142Z,50.43
2023-05-01T12:01:55.620Z,50.41
2023-05-01T12:03:01.561Z,50.15
2023-05-01T12:04:07.366Z,50.01
2023-05-01T12:05:12.785Z,49.89
2023-05-01T12:06:18.397Z,50.01
2023-05-01T12:07:23.783Z,49.92
2023-05-01T12:08:29.184Z,49.87
2023-05-01T12:09:34.615Z,49.7
2023-05-01T12:10:39.997Z,49.6
2023-05-01T12:11:45.416Z,49.58
2023-05-01T12:12:50.792Z,49.46
2023-05-01T12:13:56.200Z,49.49
2023-05-01T12:15:02.266Z,49.33
2023-05-01T12:16:07.686Z,49.43
2023-05-01T12:17:13.128Z,49.25
2023-05-01T12:18:19.040Z,48.41
2023-05-01T12:19:25.466Z,48.46
2023-05-01T12:20:30.837Z,48.13
2023-05-01T12:21:36.291Z,48.25
2023-05-01T12:22:41.709Z,48.62
2023-05-01T12:23:47.086Z,48.21
2023-05-01T12:24:52.467Z,48.61
2023-05-01T12:25:57.844Z,48.63
2023-05-01T12:27:03.251Z,48.84
2023-05-01T12:28:08.631Z,48.67
2023-05-01T12:29:14.092Z,48.74
2023-05-01T12:30:19.524Z,48.73
2023-05-01T12:31:24.959Z,49.16
2023-05-01T12:32:30.470Z,49.54
2023-05-01T12:33:35.903Z,49.59
2023-05-01T12:34:41.350Z,49.83
2023-05-01T12:35:47.022Z,49.8
2023-05-01T12:36:52.503Z,50.14
2023-05-01T12:37:57.885Z,50.02
2023-05-01T12:39:03.358Z,50.04
2023-05-01T12:40:08.837Z,50.43
2023-05-01T12:41:14.248Z,50.47
2023-05-01T12:42:19.630Z,50.49
2023-05-01T12:43:25.058Z,50.67
2023-05-01T12:44:30.523Z,50.84
2023-05-01T12:45:35.945Z,51.23
2023-05-01T12:46:41.422Z,51.08
2023-05-01T12:47:46.966Z,51.23
2023-05-01T12:48:55.743Z,51.24
2023-05-01T12:50:01.844Z,51.25
2023-05-01T12:51:07.250Z,51.49
2023-05-01T12:52:12.671Z,51.64
2023-05-01T12:53:18.291Z,51.89
2023-05-01T12:54:23.708Z,51.78
2023-05-01T12:55:29.133Z,51.89
2023-05-01T12:56:34.490Z,51.92
2023-05-01T12:57:39.888Z,51.9
2023-05-01T12:58:45.268Z,51.96
2023-05-01T12:59:50.649Z,51.99
2023-05-01T13:00:56.054Z,51.97
2023-05-01T13:02:01.867Z,52.07
2023-05-01T13:03:07.779Z,52.11
2023-05-01T13:04:13.396Z,51.96
2023-05-01T13:05:18.783Z,52.11
2023-05-01T13:06:24.327Z,52.12
2023-05-01T13:07:29.708Z,52.1
2023-05-01T13:08:35.329Z,52.3
2023-05-01T13:09:40.732Z,52.31
2023-05-01T13:10:46.113Z,52.3
2023-05-01T13:11:51.488Z,52.37
2023-05-01T13:12:56.906Z,52.53
2023-05-01T13:14:02.278Z,52.43
2023-05-01T13:15:07.683Z,52.56
2023-05-01T13:16:13.480Z,52.6
2023-05-01T13:17:18.884Z,52.41
2023-05-01T13:18:24.290Z,52.33
2023-05-01T13:19:29.781Z,52.52
2023-05-01T13:20:35.217Z,52.55
2023-05-01T13:21:40.706Z,52.65
2023-05-01T13:22:46.078Z,52.81
2023-05-01T13:23:51.550Z,52.58
2023-05-01T13:24:56.946Z,52.65
2023-05-01T13:26:02.382Z,52.8
2023-05-01T13:27:08.146Z,52.67
2023-05-01T13:28:13.528Z,52.69
2023-05-01T13:29:18.973Z,52.88
2023-05-01T13:30:24.438Z,52.87
2023-05-01T13:31:29.992Z,52.94
2023-05-01T13:32:35.571Z,52.85
2023-05-01T13:33:40.951Z,52.82
2023-05-01T13:34:46.408Z,52.92
2023-05-01T13:35:51.814Z,52.85
2023-05-01T13:36:57.183Z,52.85
2023-05-01T13:38:02.578Z,52.88
2023-05-01T13:39:08.000Z,52.88
2023-05-01T13:40:13.411Z,52.78
2023-05-01T13:41:18.812Z,52.97
2023-05-01T13:42:24.216Z,52.79
2023-05-01T13:43:29.605Z,52.81
2023-05-01T13:44:35.119Z,53.16
2023-05-01T13:45:40.666Z,53.02
2023-05-01T13:46:46.153Z,52.84
2023-05-01T13:47:51.665Z,52.79
2023-05-01T13:48:57.113Z,52.78
2023-05-01T13:50:03.334Z,52.8
2023-05-01T13:51:08.807Z,52.81
2023-05-01T13:52:14.282Z,52.68
2023-05-01T13:53:19.694Z,52.62
2023-05-01T13:54:25.083Z,52.73
2023-05-01T13:55:30.488Z,52.77
2023-05-01T13:56:35.954Z,52.76
2023-05-01T13:57:41.331Z,52.83
2023-05-01T13:58:46.702Z,52.72
2023-05-01T13:59:52.118Z,52.71
2023-05-01T14:00:57.613Z,52.78
2023-05-01T14:02:03.010Z,52.8
2023-05-01T14:03:08.611Z,52.82
2023-05-01T14:04:14.058Z,52.98
2023-05-01T14:05:19.526Z,52.87
2023-05-01T14:06:25.124Z,52.92
2023-05-01T14:07:30.524Z,52.88